Yorkville, Illinois
Current Conditions -  °F | °C
As of 5:16 AM on Saturday 22 Nov 2014 (Local Time) from KARR Reporting Station
Haze Haze  
Wind Chill: 29°   Ceiling: 400
Heat Index: 36°   Visibility: 1mi
Dew Point: 33°   Wind: 9mph
Humidity: 89%   Direction: 190°S
Pressure: 30.06"   Gusts: NA
Location:  41.64°N, 88.45°W
Report Text: KARR 221116Z AUTO 19008KT 1SM BR OVC004 02/01 A3006 RMK AO2 I1000 T00220006 $
Loading
Personal Weather Stations






























Interactive Weather Map New forecast layout! Learn more

10-Day Weather Forecast

Advertisements
Track Severe Weather on mobile